createdAt,value
2017-12-02T00:01:11.958Z,44.40
2017-12-02T00:03:38.886Z,40.47
2017-12-02T00:06:05.061Z,43.57
2017-12-02T00:08:31.956Z,41.97
2017-12-02T00:10:58.156Z,45.37
2017-12-02T00:13:24.349Z,41.63
2017-12-02T00:15:50.701Z,44.17
2017-12-02T00:18:17.028Z,48.43
2017-12-02T00:20:43.985Z,49.40
2017-12-02T00:23:10.169Z,42.27
2017-12-02T00:25:36.368Z,50.07
2017-12-02T00:28:03.290Z,48.10
2017-12-02T00:30:29.444Z,45.53
2017-12-02T00:32:56.495Z,44.93
2017-12-02T00:35:22.781Z,45.13
2017-12-02T00:37:48.953Z,44.50
2017-12-02T00:40:16.629Z,42.47
2017-12-02T00:42:43.557Z,46.67
2017-12-02T00:45:10.552Z,45.63
2017-12-02T00:47:37.452Z,51.83
2017-12-02T00:50:03.632Z,44.50
2017-12-02T00:52:29.863Z,41.80
2017-12-02T00:54:56.100Z,47.47
2017-12-02T00:57:23.033Z,45.67
2017-12-02T00:59:49.266Z,42.57
2017-12-02T01:02:16.220Z,39.97
2017-12-02T01:04:42.764Z,37.60
2017-12-02T01:07:09.128Z,40.07
2017-12-02T01:09:36.134Z,43.90
2017-12-02T01:12:02.550Z,37.40
2017-12-02T01:14:28.931Z,38.80
2017-12-02T01:16:55.215Z,45.73
2017-12-02T01:19:21.596Z,56.57
2017-12-02T01:21:48.520Z,48.80
2017-12-02T01:24:14.723Z,42.60
2017-12-02T01:26:40.971Z,43.40
2017-12-02T01:29:07.209Z,45.43
2017-12-02T01:31:33.363Z,45.77
2017-12-02T01:33:59.607Z,47.93
2017-12-02T01:36:26.624Z,42.60
2017-12-02T01:38:52.825Z,42.90
2017-12-02T01:41:19.047Z,45.23
2017-12-02T01:43:45.236Z,49.40
2017-12-02T01:46:11.400Z,44.30
2017-12-02T01:48:37.632Z,45.27
2017-12-02T01:51:03.826Z,46.57
2017-12-02T01:53:30.033Z,40.60
2017-12-02T01:55:56.945Z,41.63
2017-12-02T01:58:23.215Z,39.77
2017-12-02T02:00:49.420Z,37.67
2017-12-02T02:03:15.626Z,38.60
2017-12-02T02:05:41.788Z,38.07
2017-12-02T02:08:07.942Z,33.60
2017-12-02T02:10:34.134Z,33.57
2017-12-02T02:13:00.296Z,36.67
2017-12-02T02:15:26.454Z,33.13
2017-12-02T02:17:53.453Z,31.20
2017-12-02T02:20:19.810Z,31.30
2017-12-02T02:22:46.001Z,36.60
2017-12-02T02:25:12.181Z,36.93
2017-12-02T02:27:39.088Z,33.60
2017-12-02T02:30:05.249Z,84.67
2017-12-02T02:32:31.464Z,38.83
2017-12-02T02:34:57.630Z,39.53
2017-12-02T02:37:23.800Z,39.80
2017-12-02T02:39:49.977Z,40.13
2017-12-02T02:42:16.133Z,43.70
2017-12-02T02:44:42.298Z,48.50
2017-12-02T02:47:08.473Z,49.33
2017-12-02T02:49:34.644Z,53.40
2017-12-02T02:52:01.570Z,55.30
2017-12-02T02:54:27.753Z,56.27
2017-12-02T02:56:53.915Z,56.63
2017-12-02T02:59:20.899Z,53.80
2017-12-02T03:01:47.087Z,57.73
2017-12-02T03:04:13.254Z,50.23
2017-12-02T03:06:40.900Z,65.87
2017-12-02T03:09:07.085Z,54.53
2017-12-02T03:11:33.988Z,59.57
2017-12-02T03:14:00.152Z,58.97
2017-12-02T03:16:26.314Z,60.17
2017-12-02T03:18:53.452Z,55.47
2017-12-02T03:21:20.457Z,55.03
2017-12-02T03:23:46.629Z,63.57
2017-12-02T03:26:13.536Z,53.00
2017-12-02T03:28:39.725Z,60.47
2017-12-02T03:31:06.638Z,59.57
2017-12-02T03:33:32.817Z,57.00
2017-12-02T03:35:59.021Z,51.40
2017-12-02T03:38:25.974Z,48.47
2017-12-02T03:40:52.904Z,48.47
2017-12-02T03:43:19.077Z,43.03
2017-12-02T03:45:46.000Z,40.73
2017-12-02T03:48:12.172Z,43.13
2017-12-02T03:50:38.341Z,41.37
2017-12-02T03:53:04.521Z,47.00
2017-12-02T03:55:30.739Z,43.80
2017-12-02T03:57:56.885Z,42.77
2017-12-02T04:00:23.814Z,41.77
2017-12-02T04:02:49.988Z,36.40
2017-12-02T04:05:16.181Z,42.30
2017-12-02T04:07:42.377Z,40.73
2017-12-02T04:10:08.533Z,37.77
2017-12-02T04:12:34.707Z,38.23
2017-12-02T04:15:01.637Z,43.13
2017-12-02T04:17:27.805Z,37.03
2017-12-02T04:19:54.960Z,39.60
2017-12-02T04:22:24.857Z,36.67
2017-12-02T04:24:51.769Z,38.90
2017-12-02T04:27:18.690Z,41.97
2017-12-02T04:29:45.401Z,35.87
2017-12-02T04:32:12.360Z,35.73
2017-12-02T04:34:39.264Z,34.97
2017-12-02T04:37:05.425Z,34.73
2017-12-02T04:39:32.344Z,37.40
2017-12-02T04:41:58.560Z,35.50
2017-12-02T04:44:24.735Z,40.83
2017-12-02T04:46:50.886Z,31.37
2017-12-02T04:49:17.776Z,31.80
2017-12-02T04:51:44.017Z,35.90
2017-12-02T04:54:10.201Z,29.47
2017-12-02T04:56:37.128Z,35.03
2017-12-02T04:59:03.297Z,32.97
2017-12-02T05:01:30.218Z,37.20
2017-12-02T05:03:56.396Z,32.08
2017-12-02T05:06:22.597Z,33.20
2017-12-02T05:08:49.521Z,31.33
2017-12-02T05:11:15.705Z,32.83
2017-12-02T05:13:42.613Z,27.30
2017-12-02T05:16:08.776Z,34.83
2017-12-02T05:18:35.692Z,33.25
2017-12-02T05:21:06.109Z,31.00
2017-12-02T05:23:33.349Z,33.57
2017-12-02T05:25:59.592Z,33.00
2017-12-02T05:28:25.822Z,32.83
2017-12-02T05:30:52.012Z,30.30
2017-12-02T05:33:18.921Z,31.30
2017-12-02T05:35:45.383Z,31.00
2017-12-02T05:38:13.068Z,32.43
2017-12-02T05:40:40.017Z,33.60
2017-12-02T05:43:07.133Z,30.05
2017-12-02T05:45:33.298Z,36.27
2017-12-02T05:47:59.456Z,31.67
2017-12-02T05:50:26.360Z,33.40
2017-12-02T05:52:52.527Z,39.23
2017-12-02T05:55:19.429Z,29.77
2017-12-02T05:57:45.599Z,34.55
2017-12-02T06:00:12.512Z,37.75
2017-12-02T06:02:38.689Z,33.97
2017-12-02T06:05:06.421Z,33.42
2017-12-02T06:07:32.602Z,34.05
2017-12-02T06:09:59.596Z,31.17
2017-12-02T06:12:25.885Z,32.23
2017-12-02T06:14:52.789Z,29.30
2017-12-02T06:17:19.016Z,31.60
2017-12-02T06:19:46.074Z,35.78
2017-12-02T06:22:12.320Z,42.50
2017-12-02T06:24:38.678Z,32.58
2017-12-02T06:27:05.622Z,31.25
2017-12-02T06:29:31.780Z,31.95
2017-12-02T06:31:57.976Z,30.88
2017-12-02T06:34:24.156Z,30.90
2017-12-02T06:36:50.332Z,35.30
2017-12-02T06:39:16.505Z,32.30
2017-12-02T06:41:42.689Z,38.75
2017-12-02T06:44:08.866Z,33.42
2017-12-02T06:46:35.799Z,35.60
2017-12-02T06:49:01.996Z,38.55
2017-12-02T06:51:28.195Z,37.67
2017-12-02T06:53:55.101Z,38.47
2017-12-02T06:56:21.306Z,38.67
2017-12-02T06:58:47.533Z,35.92
2017-12-02T07:01:13.730Z,37.75
2017-12-02T07:03:39.931Z,35.05
2017-12-02T07:06:06.133Z,35.35
2017-12-02T07:08:32.320Z,37.80
2017-12-02T07:10:58.532Z,34.95
2017-12-02T07:13:24.718Z,34.58
2017-12-02T07:15:50.911Z,38.40
2017-12-02T07:18:18.697Z,31.00
2017-12-02T07:20:44.868Z,39.15
2017-12-02T07:23:11.205Z,31.12
2017-12-02T07:25:37.626Z,37.92
2017-12-02T07:28:04.554Z,40.05
2017-12-02T07:30:31.484Z,35.80
2017-12-02T07:32:57.717Z,35.58
2017-12-02T07:35:23.900Z,36.38
2017-12-02T07:37:50.098Z,36.35
2017-12-02T07:40:16.300Z,37.50
2017-12-02T07:42:42.517Z,44.17
2017-12-02T07:45:08.688Z,34.35
2017-12-02T07:47:34.909Z,42.45
2017-12-02T07:50:01.083Z,38.75
2017-12-02T07:52:28.008Z,41.00
2017-12-02T07:54:54.206Z,48.85
2017-12-02T07:57:20.379Z,35.45
2017-12-02T07:59:46.697Z,38.10
2017-12-02T08:02:13.692Z,38.78
2017-12-02T08:04:39.855Z,40.58
2017-12-02T08:07:06.057Z,37.05
2017-12-02T08:09:33.103Z,38.55
2017-12-02T08:11:59.289Z,38.55
2017-12-02T08:14:25.529Z,35.25
2017-12-02T08:16:51.705Z,40.22
2017-12-02T08:19:17.932Z,50.05
2017-12-02T08:21:44.121Z,48.10
2017-12-02T08:24:10.448Z,40.08
2017-12-02T08:26:36.802Z,51.97
2017-12-02T08:29:03.001Z,44.55
2017-12-02T08:31:29.185Z,48.55
2017-12-02T08:33:55.361Z,44.90
2017-12-02T08:36:21.590Z,47.72
2017-12-02T08:38:48.597Z,43.60
2017-12-02T08:41:14.781Z,42.15
2017-12-02T08:43:41.722Z,44.78
2017-12-02T08:46:07.935Z,41.07
2017-12-02T08:48:34.183Z,34.20
2017-12-02T08:51:00.385Z,42.55
2017-12-02T08:53:26.581Z,31.90
2017-12-02T08:55:53.489Z,39.15
2017-12-02T08:58:19.660Z,35.40
2017-12-02T09:00:45.843Z,38.10
2017-12-02T09:03:12.034Z,36.50
2017-12-02T09:05:38.364Z,38.58
2017-12-02T09:08:05.311Z,41.97
2017-12-02T09:10:31.504Z,47.97
2017-12-02T09:12:57.713Z,41.90
2017-12-02T09:15:23.936Z,47.53
2017-12-02T09:17:50.135Z,45.75
2017-12-02T09:20:17.084Z,49.80
2017-12-02T09:22:43.326Z,50.67
2017-12-02T09:25:09.609Z,49.85
2017-12-02T09:27:36.028Z,52.13
2017-12-02T09:30:02.269Z,58.70
2017-12-02T09:32:28.493Z,55.55
2017-12-02T09:34:54.708Z,56.95
2017-12-02T09:37:21.678Z,49.03
2017-12-02T09:39:47.900Z,54.63
2017-12-02T09:42:14.145Z,55.67
2017-12-02T09:44:40.332Z,59.20
2017-12-02T09:47:06.549Z,62.47
2017-12-02T09:49:33.540Z,54.83
2017-12-02T09:52:00.477Z,60.80
2017-12-02T09:54:26.645Z,59.20
2017-12-02T09:56:52.824Z,56.17
2017-12-02T09:59:19.057Z,58.10
2017-12-02T10:01:45.228Z,52.17
2017-12-02T10:04:11.411Z,55.63
2017-12-02T10:06:37.638Z,47.62
2017-12-02T10:09:03.796Z,58.67
2017-12-02T10:11:29.972Z,55.05
2017-12-02T10:13:56.133Z,49.40
2017-12-02T10:16:22.308Z,57.45
2017-12-02T10:18:48.469Z,52.20
2017-12-02T10:21:15.391Z,44.97
2017-12-02T10:23:41.553Z,49.40
2017-12-02T10:26:08.799Z,46.70
2017-12-02T10:28:35.198Z,44.92
2017-12-02T10:31:01.381Z,45.80
2017-12-02T10:33:28.289Z,47.60
2017-12-02T10:35:54.464Z,51.72
2017-12-02T10:38:21.412Z,54.95
2017-12-02T10:40:47.703Z,53.13
2017-12-02T10:43:14.070Z,51.37
2017-12-02T10:45:41.005Z,46.80
2017-12-02T10:48:07.273Z,55.90
2017-12-02T10:50:33.644Z,57.47
2017-12-02T10:52:59.939Z,55.50
2017-12-02T10:55:26.901Z,46.70
2017-12-02T10:57:53.149Z,45.90
2017-12-02T11:00:19.503Z,43.35
2017-12-02T11:02:45.832Z,57.85
2017-12-02T11:05:12.043Z,51.80
2017-12-02T11:07:38.266Z,52.08
2017-12-02T11:10:05.191Z,46.47
2017-12-02T11:12:31.394Z,51.80
2017-12-02T11:14:57.588Z,57.90
2017-12-02T11:17:24.504Z,49.00
2017-12-02T11:19:50.737Z,49.95
2017-12-02T11:22:16.957Z,47.97
2017-12-02T11:24:43.176Z,49.08
2017-12-02T11:27:09.681Z,54.33
2017-12-02T11:29:36.154Z,45.08
2017-12-02T11:32:02.325Z,48.10
2017-12-02T11:34:28.557Z,45.85
2017-12-02T11:36:55.520Z,51.28
2017-12-02T11:39:23.205Z,52.28
2017-12-02T11:41:49.392Z,46.78
2017-12-02T11:44:15.635Z,42.40
2017-12-02T11:46:41.868Z,46.83
2017-12-02T11:49:08.092Z,44.75
2017-12-02T11:51:35.092Z,49.20
2017-12-02T11:54:01.389Z,45.50
2017-12-02T11:56:28.562Z,46.47
2017-12-02T11:58:54.834Z,44.00
2017-12-02T12:01:21.849Z,45.20
2017-12-02T12:03:48.876Z,44.13
2017-12-02T12:06:15.108Z,44.58
2017-12-02T12:08:41.297Z,41.35
2017-12-02T12:11:09.141Z,43.55
2017-12-02T12:13:35.417Z,43.83
2017-12-02T12:16:01.631Z,45.50
2017-12-02T12:18:27.910Z,50.22
2017-12-02T12:20:54.140Z,48.17
2017-12-02T12:23:20.348Z,45.40
2017-12-02T12:25:48.208Z,41.42
2017-12-02T12:28:15.237Z,49.15
2017-12-02T12:30:41.538Z,51.50
2017-12-02T12:33:07.824Z,48.35
2017-12-02T12:35:34.179Z,47.13
2017-12-02T12:38:00.393Z,47.80
2017-12-02T12:40:26.569Z,51.65
2017-12-02T12:42:52.777Z,52.25
2017-12-02T12:45:19.694Z,47.10
2017-12-02T12:47:45.913Z,45.03
2017-12-02T12:50:12.105Z,45.78
2017-12-02T12:52:38.313Z,52.95
2017-12-02T12:55:04.533Z,47.62
2017-12-02T12:57:30.725Z,51.13
2017-12-02T12:59:56.916Z,53.65
2017-12-02T13:02:25.083Z,58.80
2017-12-02T13:04:51.328Z,64.97
2017-12-02T13:07:18.281Z,45.22
2017-12-02T13:09:45.425Z,53.87
2017-12-02T13:12:12.387Z,52.88
2017-12-02T13:14:38.657Z,53.03
2017-12-02T13:17:04.876Z,55.28
2017-12-02T13:19:32.542Z,61.40
2017-12-02T13:21:59.817Z,49.65
2017-12-02T13:24:26.773Z,56.85
2017-12-02T13:26:52.953Z,47.45
2017-12-02T13:29:19.205Z,51.58
2017-12-02T13:31:45.756Z,52.20
2017-12-02T13:34:18.889Z,54.45
2017-12-02T13:36:45.118Z,51.88
2017-12-02T13:39:11.371Z,52.15
2017-12-02T13:41:37.912Z,52.30
2017-12-02T13:47:21.739Z,53.67
2017-12-02T13:49:47.944Z,52.83
2017-12-02T13:52:14.869Z,53.70
2017-12-02T13:54:41.077Z,55.92
2017-12-02T13:57:07.269Z,47.50
2017-12-02T13:59:34.179Z,54.97
2017-12-02T14:02:01.576Z,52.28
2017-12-02T14:04:27.845Z,62.92
2017-12-02T14:06:54.019Z,55.63
2017-12-02T14:09:20.509Z,54.33
2017-12-02T14:11:46.669Z,55.92
2017-12-02T14:14:12.835Z,64.10
2017-12-02T14:16:39.769Z,56.95
2017-12-02T14:19:05.934Z,55.10
2017-12-02T14:21:32.853Z,54.67
2017-12-02T14:23:59.037Z,52.28
2017-12-02T14:26:25.221Z,53.05
2017-12-02T14:28:51.392Z,54.03
2017-12-02T14:31:18.565Z,56.15
2017-12-02T14:33:44.844Z,54.00
2017-12-02T14:36:11.005Z,51.42
2017-12-02T14:38:37.965Z,54.10
2017-12-02T14:41:04.183Z,59.28
2017-12-02T14:43:30.459Z,51.15
2017-12-02T14:45:56.721Z,56.00
2017-12-02T14:48:22.961Z,55.42
2017-12-02T14:50:49.942Z,50.03
2017-12-02T14:53:17.093Z,54.70
2017-12-02T14:55:44.094Z,57.08
2017-12-02T14:58:10.363Z,52.20
2017-12-02T15:00:38.163Z,60.03
2017-12-02T15:03:04.609Z,54.15
2017-12-02T15:05:30.849Z,59.58
2017-12-02T15:07:57.101Z,52.05
2017-12-02T15:10:23.327Z,58.17
2017-12-02T15:12:49.522Z,58.17
2017-12-02T15:15:15.732Z,52.45
2017-12-02T15:17:41.911Z,55.40
2017-12-02T15:20:08.817Z,50.05
2017-12-02T15:22:34.997Z,57.88
2017-12-02T15:25:01.905Z,51.72
2017-12-02T15:27:28.112Z,48.60
2017-12-02T15:29:54.354Z,51.13
2017-12-02T15:32:20.577Z,49.45
2017-12-02T15:34:46.994Z,47.30
2017-12-02T15:37:13.193Z,46.05
2017-12-02T15:39:39.406Z,51.83
2017-12-02T15:42:05.593Z,54.53
2017-12-02T15:44:31.805Z,47.50
2017-12-02T15:46:58.733Z,53.05
2017-12-02T15:49:24.912Z,43.87
2017-12-02T15:51:51.869Z,55.83
2017-12-02T15:54:18.070Z,54.90
2017-12-02T15:56:44.309Z,44.90
2017-12-02T15:59:11.276Z,55.72
2017-12-02T16:01:38.221Z,47.30
2017-12-02T16:04:05.205Z,51.88
2017-12-02T16:06:31.465Z,54.50
2017-12-02T16:08:58.435Z,46.65
2017-12-02T16:11:24.648Z,49.05
2017-12-02T16:13:50.837Z,60.63
2017-12-02T16:16:17.793Z,51.08
2017-12-02T16:18:44.046Z,56.17
2017-12-02T16:21:10.255Z,55.50
2017-12-02T16:23:36.505Z,52.28
2017-12-02T16:26:02.681Z,50.25
2017-12-02T16:28:28.886Z,51.40
2017-12-02T16:30:55.078Z,52.53
2017-12-02T16:33:22.074Z,52.00
2017-12-02T16:35:48.485Z,52.10
2017-12-02T16:38:15.397Z,47.83
2017-12-02T16:40:41.624Z,44.67
2017-12-02T16:43:07.846Z,46.47
2017-12-02T16:45:34.022Z,46.55
2017-12-02T16:48:00.962Z,43.67
2017-12-02T16:50:27.977Z,47.22
2017-12-02T16:53:01.202Z,49.80
2017-12-02T16:55:27.422Z,48.20
2017-12-02T16:57:53.629Z,58.95
2017-12-02T17:00:19.814Z,49.40
2017-12-02T17:02:46.797Z,51.70
2017-12-02T17:05:13.004Z,51.90
2017-12-02T17:07:40.053Z,60.45
2017-12-02T17:10:06.245Z,48.45
2017-12-02T17:12:32.461Z,55.35
2017-12-02T17:14:58.667Z,47.55
2017-12-02T17:17:24.885Z,50.65
2017-12-02T17:19:51.073Z,55.40
2017-12-02T17:22:17.253Z,52.42
2017-12-02T17:24:44.186Z,59.70
2017-12-02T17:27:10.369Z,59.97
2017-12-02T17:29:36.549Z,52.17
2017-12-02T17:32:02.760Z,57.28
2017-12-02T17:34:29.009Z,54.25
2017-12-02T17:36:55.229Z,54.45
2017-12-02T17:39:21.447Z,49.25
2017-12-02T17:41:47.665Z,57.75
2017-12-02T17:44:13.888Z,58.70
2017-12-02T17:46:40.115Z,56.75
2017-12-02T17:49:06.306Z,57.92
2017-12-02T17:51:32.548Z,68.03
2017-12-02T17:53:58.757Z,55.75
2017-12-02T17:56:24.950Z,62.22
2017-12-02T17:58:51.900Z,57.50
2017-12-02T18:01:18.856Z,52.45
2017-12-02T18:03:45.792Z,56.85
2017-12-02T18:06:13.568Z,52.17
2017-12-02T18:08:40.544Z,51.85
2017-12-02T18:11:07.452Z,53.22
2017-12-02T18:13:33.626Z,49.40
2017-12-02T18:16:00.219Z,45.83
2017-12-02T18:18:26.412Z,47.05
2017-12-02T18:20:52.594Z,50.67
2017-12-02T18:23:20.313Z,45.50
2017-12-02T18:25:46.487Z,49.58
2017-12-02T18:28:12.684Z,50.70
2017-12-02T18:30:38.907Z,49.95
2017-12-02T18:33:05.096Z,52.62
2017-12-02T18:35:32.114Z,45.53
2017-12-02T18:37:58.513Z,46.90
2017-12-02T18:40:25.436Z,48.60
2017-12-02T18:42:51.629Z,47.42
2017-12-02T18:45:17.825Z,43.20
2017-12-02T18:47:44.048Z,41.50
2017-12-02T18:50:10.253Z,44.95
2017-12-02T18:52:36.593Z,33.65
2017-12-02T18:55:02.776Z,47.03
2017-12-02T18:57:29.704Z,41.47
2017-12-02T18:59:56.781Z,46.60
2017-12-02T19:02:23.029Z,44.00
2017-12-02T19:04:49.961Z,48.55
2017-12-02T19:07:17.025Z,51.65
2017-12-02T19:09:43.954Z,47.28
2017-12-02T19:12:10.898Z,46.47
2017-12-02T19:14:37.086Z,51.28
2017-12-02T19:17:03.275Z,44.97
2017-12-02T19:19:29.441Z,49.33
2017-12-02T19:21:55.640Z,52.60
2017-12-02T19:24:21.808Z,46.37
2017-12-02T19:26:48.753Z,48.33
2017-12-02T19:29:15.785Z,47.17
2017-12-02T19:31:42.729Z,47.83
2017-12-02T19:34:08.937Z,61.63
2017-12-02T19:36:35.283Z,58.47
2017-12-02T19:39:01.660Z,54.72
2017-12-02T19:41:28.597Z,56.50
2017-12-02T19:43:54.777Z,48.45
2017-12-02T19:46:20.977Z,48.53
2017-12-02T19:48:47.178Z,54.17
2017-12-02T19:51:15.141Z,57.97
2017-12-02T19:53:41.304Z,53.67
2017-12-02T19:56:07.529Z,54.08
2017-12-02T19:58:35.273Z,53.58
2017-12-02T20:01:01.471Z,63.22
2017-12-02T20:03:27.649Z,57.50
2017-12-02T20:05:53.870Z,54.60
2017-12-02T20:08:20.064Z,59.13
2017-12-02T20:10:47.001Z,72.80
2017-12-02T20:13:14.082Z,66.25
2017-12-02T20:15:40.292Z,67.70
2017-12-02T20:18:06.522Z,62.45
2017-12-02T20:20:32.703Z,65.32
2017-12-02T20:22:58.893Z,58.50
2017-12-02T20:25:25.837Z,71.65
2017-12-02T20:27:52.764Z,57.58
2017-12-02T20:30:18.926Z,62.90
2017-12-02T20:32:45.914Z,72.90
2017-12-02T20:35:12.109Z,64.78
2017-12-02T20:37:38.382Z,67.32
2017-12-02T20:40:04.778Z,73.15
2017-12-02T20:42:30.962Z,67.53
2017-12-02T20:44:57.168Z,70.03
2017-12-02T20:47:24.129Z,70.35
2017-12-02T20:49:50.308Z,73.05
2017-12-02T20:52:16.531Z,57.00
2017-12-02T20:54:42.708Z,63.87
2017-12-02T20:57:10.529Z,69.53
2017-12-02T20:59:36.718Z,66.75
2017-12-02T21:02:04.437Z,84.10
2017-12-02T21:04:31.502Z,74.00
2017-12-02T21:06:57.758Z,64.07
2017-12-02T21:09:23.916Z,80.30
2017-12-02T21:11:50.869Z,67.65
2017-12-02T21:14:17.074Z,74.30
2017-12-02T21:16:44.025Z,70.65
2017-12-02T21:19:11.169Z,67.37
2017-12-02T21:21:37.366Z,74.68
2017-12-02T21:24:03.541Z,69.97
2017-12-02T21:26:29.720Z,63.78
2017-12-02T21:28:55.952Z,76.57
2017-12-02T21:31:22.112Z,69.57
2017-12-02T21:33:48.458Z,68.75
2017-12-02T21:36:14.705Z,65.10
2017-12-02T21:38:41.063Z,57.38
2017-12-02T21:41:07.536Z,57.58
2017-12-02T21:43:33.804Z,62.17
2017-12-02T21:46:00.918Z,60.85
2017-12-02T21:48:27.145Z,60.72
2017-12-02T21:50:53.313Z,60.53
2017-12-02T21:53:19.509Z,66.45
2017-12-02T21:55:46.829Z,66.00
2017-12-02T21:58:21.487Z,57.67
2017-12-02T22:00:49.505Z,67.03
2017-12-02T22:03:15.822Z,64.07
2017-12-02T22:05:43.644Z,65.47
2017-12-02T22:08:10.027Z,61.80
2017-12-02T22:10:36.375Z,58.45
2017-12-02T22:13:03.513Z,66.25
2017-12-02T22:15:30.531Z,63.17
2017-12-02T22:17:57.605Z,57.95
2017-12-02T22:20:24.301Z,56.67
2017-12-02T22:22:50.700Z,58.10
2017-12-02T22:25:17.729Z,63.67
2017-12-02T22:27:44.925Z,62.80
2017-12-02T22:30:12.031Z,60.85
2017-12-02T22:32:38.413Z,58.80
2017-12-02T22:35:04.669Z,54.90
2017-12-02T22:37:31.741Z,50.63
2017-12-02T22:39:57.993Z,58.60
2017-12-02T22:42:24.325Z,54.83
2017-12-02T22:44:50.720Z,54.70
2017-12-02T22:47:16.941Z,62.75
2017-12-02T22:49:43.866Z,50.60
2017-12-02T22:52:11.901Z,53.05
2017-12-02T22:54:38.095Z,59.67
2017-12-02T22:59:45.463Z,59.97
2017-12-02T23:02:11.634Z,53.75
2017-12-02T23:04:38.588Z,55.45
2017-12-02T23:07:05.630Z,55.63
2017-12-02T23:09:31.933Z,62.60
2017-12-02T23:11:58.924Z,55.97
2017-12-02T23:14:27.569Z,53.33
2017-12-02T23:16:53.741Z,62.67
2017-12-02T23:19:20.653Z,57.10
2017-12-02T23:21:47.642Z,58.85
2017-12-02T23:24:14.575Z,59.33
2017-12-02T23:26:40.754Z,61.03
2017-12-02T23:29:06.952Z,62.97
2017-12-02T23:31:33.882Z,66.22
2017-12-02T23:34:00.057Z,62.97
2017-12-02T23:36:26.271Z,60.20
2017-12-02T23:38:53.203Z,53.15
2017-12-02T23:41:19.478Z,62.95
2017-12-02T23:43:48.462Z,63.28
2017-12-02T23:46:15.381Z,65.20
2017-12-02T23:48:41.614Z,66.32
2017-12-02T23:51:07.801Z,78.03
2017-12-02T23:53:34.005Z,65.22
2017-12-02T23:56:00.177Z,64.85
2017-12-02T23:58:26.352Z,59.15
